sensor_id;sensor_type;location;lat;lon;timestamp;temperature;humidity
25108;DHT22;13090;53.422;7.670;2023-11-21T00:01:41;12.30;95.50
25108;DHT22;13090;53.422;7.670;2023-11-21T00:07:21;12.30;95.60
25108;DHT22;13090;53.422;7.670;2023-11-21T00:13:03;12.30;95.50
25108;DHT22;13090;53.422;7.670;2023-11-21T00:18:44;12.30;95.50
25108;DHT22;13090;53.422;7.670;2023-11-21T00:24:24;12.30;95.60
25108;DHT22;13090;53.422;7.670;2023-11-21T00:30:06;12.30;95.60
25108;DHT22;13090;53.422;7.670;2023-11-21T00:35:47;12.30;95.60
25108;DHT22;13090;53.422;7.670;2023-11-21T00:41:27;12.30;95.60
25108;DHT22;13090;53.422;7.670;2023-11-21T00:47:09;12.40;96.00
25108;DHT22;13090;53.422;7.670;2023-11-21T00:52:49;12.30;95.50
25108;DHT22;13090;53.422;7.670;2023-11-21T00:58:29;12.30;95.60
25108;DHT22;13090;53.422;7.670;2023-11-21T01:04:11;12.30;95.60
25108;DHT22;13090;53.422;7.670;2023-11-21T01:09:51;12.30;95.60
25108;DHT22;13090;53.422;7.670;2023-11-21T01:15:31;12.20;95.50
25108;DHT22;13090;53.422;7.670;2023-11-21T01:21:13;12.20;95.60
25108;DHT22;13090;53.422;7.670;2023-11-21T01:26:53;12.30;95.80
25108;DHT22;13090;53.422;7.670;2023-11-21T01:32:33;12.30;95.80
25108;DHT22;13090;53.422;7.670;2023-11-21T01:38:15;12.40;95.70
25108;DHT22;13090;53.422;7.670;2023-11-21T01:43:55;12.40;95.70
25108;DHT22;13090;53.422;7.670;2023-11-21T01:49:35;12.40;95.60
25108;DHT22;13090;53.422;7.670;2023-11-21T01:55:18;12.30;95.50
25108;DHT22;13090;53.422;7.670;2023-11-21T02:01:08;12.30;95.60
25108;DHT22;13090;53.422;7.670;2023-11-21T02:06:48;12.30;95.60
25108;DHT22;13090;53.422;7.670;2023-11-21T02:12:30;12.20;95.60
25108;DHT22;13090;53.422;7.670;2023-11-21T02:18:10;12.20;95.70
25108;DHT22;13090;53.422;7.670;2023-11-21T02:23:52;12.20;95.80
25108;DHT22;13090;53.422;7.670;2023-11-21T02:29:32;12.20;95.80
25108;DHT22;13090;53.422;7.670;2023-11-21T02:35:12;12.20;95.90
25108;DHT22;13090;53.422;7.670;2023-11-21T02:40:54;12.30;95.90
25108;DHT22;13090;53.422;7.670;2023-11-21T02:46:34;12.40;95.90
25108;DHT22;13090;53.422;7.670;2023-11-21T02:52:14;12.50;95.80
25108;DHT22;13090;53.422;7.670;2023-11-21T02:57:56;12.40;95.70
25108;DHT22;13090;53.422;7.670;2023-11-21T03:03:36;12.40;95.60
25108;DHT22;13090;53.422;7.670;2023-11-21T03:09:17;12.30;95.60
25108;DHT22;13090;53.422;7.670;2023-11-21T03:14:59;12.30;95.80
25108;DHT22;13090;53.422;7.670;2023-11-21T03:20:39;12.30;95.90
25108;DHT22;13090;53.422;7.670;2023-11-21T03:26:19;12.30;95.90
25108;DHT22;13090;53.422;7.670;2023-11-21T03:32:01;12.30;95.70
25108;DHT22;13090;53.422;7.670;2023-11-21T03:37:41;12.20;95.60
25108;DHT22;13090;53.422;7.670;2023-11-21T03:43:21;12.10;95.60
25108;DHT22;13090;53.422;7.670;2023-11-21T03:49:03;12.00;95.70
25108;DHT22;13090;53.422;7.670;2023-11-21T03:54:43;11.90;95.70
25108;DHT22;13090;53.422;7.670;2023-11-21T04:00:24;11.80;95.70
25108;DHT22;13090;53.422;7.670;2023-11-21T04:06:07;11.70;95.80
25108;DHT22;13090;53.422;7.670;2023-11-21T04:11:47;11.60;95.80
25108;DHT22;13090;53.422;7.670;2023-11-21T04:17:27;11.60;95.90
25108;DHT22;13090;53.422;7.670;2023-11-21T04:23:09;11.50;95.90
25108;DHT22;13090;53.422;7.670;2023-11-21T04:28:49;11.40;96.00
25108;DHT22;13090;53.422;7.670;2023-11-21T04:34:29;11.40;96.00
25108;DHT22;13090;53.422;7.670;2023-11-21T04:40:12;11.30;96.00
25108;DHT22;13090;53.422;7.670;2023-11-21T04:45:52;11.20;96.10
25108;DHT22;13090;53.422;7.670;2023-11-21T04:51:33;11.20;96.10
25108;DHT22;13090;53.422;7.670;2023-11-21T04:57:14;11.20;96.20
25108;DHT22;13090;53.422;7.670;2023-11-21T05:02:54;11.20;96.10
25108;DHT22;13090;53.422;7.670;2023-11-21T05:08:35;11.20;96.10
25108;DHT22;13090;53.422;7.670;2023-11-21T05:14:17;11.10;96.00
25108;DHT22;13090;53.422;7.670;2023-11-21T05:19:56;11.10;96.00
25108;DHT22;13090;53.422;7.670;2023-11-21T05:25:37;11.10;96.00
25108;DHT22;13090;53.422;7.670;2023-11-21T05:31:21;11.10;95.90
25108;DHT22;13090;53.422;7.670;2023-11-21T05:37:02;11.00;95.80
25108;DHT22;13090;53.422;7.670;2023-11-21T05:42:43;10.90;95.90
25108;DHT22;13090;53.422;7.670;2023-11-21T05:48:26;10.90;95.90
25108;DHT22;13090;53.422;7.670;2023-11-21T05:54:06;10.80;95.90
25108;DHT22;13090;53.422;7.670;2023-11-21T05:59:46;10.80;95.80
25108;DHT22;13090;53.422;7.670;2023-11-21T06:05:28;10.70;95.90
25108;DHT22;13090;53.422;7.670;2023-11-21T06:11:08;10.70;95.90
25108;DHT22;13090;53.422;7.670;2023-11-21T06:16:49;10.70;95.80
25108;DHT22;13090;53.422;7.670;2023-11-21T06:22:31;10.60;95.80
25108;DHT22;13090;53.422;7.670;2023-11-21T06:28:12;10.60;95.70
25108;DHT22;13090;53.422;7.670;2023-11-21T06:33:52;10.60;95.70
25108;DHT22;13090;53.422;7.670;2023-11-21T06:39:34;10.60;95.80
25108;DHT22;13090;53.422;7.670;2023-11-21T06:45:14;10.60;95.70
25108;DHT22;13090;53.422;7.670;2023-11-21T06:50:55;10.50;95.70
25108;DHT22;13090;53.422;7.670;2023-11-21T06:56:37;10.50;95.70
25108;DHT22;13090;53.422;7.670;2023-11-21T07:02:17;10.40;95.60
25108;DHT22;13090;53.422;7.670;2023-11-21T07:07:58;10.40;95.60
25108;DHT22;13090;53.422;7.670;2023-11-21T07:13:40;10.40;95.70
25108;DHT22;13090;53.422;7.670;2023-11-21T07:19:20;10.30;95.50
25108;DHT22;13090;53.422;7.670;2023-11-21T07:25:01;10.30;95.60
25108;DHT22;13090;53.422;7.670;2023-11-21T07:30:43;10.20;95.40
25108;DHT22;13090;53.422;7.670;2023-11-21T07:36:23;10.20;95.60
25108;DHT22;13090;53.422;7.670;2023-11-21T07:42:04;10.20;95.70
25108;DHT22;13090;53.422;7.670;2023-11-21T07:47:45;10.30;95.60
25108;DHT22;13090;53.422;7.670;2023-11-21T07:53:26;10.40;95.70
25108;DHT22;13090;53.422;7.670;2023-11-21T07:59:06;10.30;95.30
25108;DHT22;13090;53.422;7.670;2023-11-21T08:04:48;10.30;95.40
25108;DHT22;13090;53.422;7.670;2023-11-21T08:10:29;10.30;95.40
25108;DHT22;13090;53.422;7.670;2023-11-21T08:16:09;10.30;95.30
25108;DHT22;13090;53.422;7.670;2023-11-21T08:21:51;10.30;95.20
25108;DHT22;13090;53.422;7.670;2023-11-21T08:27:32;10.30;95.30
25108;DHT22;13090;53.422;7.670;2023-11-21T08:33:12;10.30;95.40
25108;DHT22;13090;53.422;7.670;2023-11-21T08:38:54;10.40;95.50
25108;DHT22;13090;53.422;7.670;2023-11-21T08:44:34;10.40;95.10
25108;DHT22;13090;53.422;7.670;2023-11-21T08:50:14;10.50;95.00
25108;DHT22;13090;53.422;7.670;2023-11-21T08:55:56;10.50;95.00
25108;DHT22;13090;53.422;7.670;2023-11-21T09:01:36;10.50;94.50
25108;DHT22;13090;53.422;7.670;2023-11-21T09:07:16;10.50;94.80
25108;DHT22;13090;53.422;7.670;2023-11-21T09:12:58;10.40;94.80
25108;DHT22;13090;53.422;7.670;2023-11-21T09:18:38;10.50;94.90
25108;DHT22;13090;53.422;7.670;2023-11-21T09:24:19;10.50;95.00
25108;DHT22;13090;53.422;7.670;2023-11-21T09:30:01;10.60;95.10
25108;DHT22;13090;53.422;7.670;2023-11-21T09:35:41;10.60;94.80
25108;DHT22;13090;53.422;7.670;2023-11-21T09:41:27;10.70;95.00
25108;DHT22;13090;53.422;7.670;2023-11-21T09:47:15;10.70;94.90
25108;DHT22;13090;53.422;7.670;2023-11-21T09:53:00;10.80;95.00
25108;DHT22;13090;53.422;7.670;2023-11-21T09:58:44;10.90;94.90
25108;DHT22;13090;53.422;7.670;2023-11-21T10:04:28;10.90;94.90
25108;DHT22;13090;53.422;7.670;2023-11-21T10:10:09;11.00;95.00
25108;DHT22;13090;53.422;7.670;2023-11-21T10:15:51;11.10;95.10
25108;DHT22;13090;53.422;7.670;2023-11-21T10:21:33;11.10;95.10
25108;DHT22;13090;53.422;7.670;2023-11-21T10:27:13;11.30;95.00
25108;DHT22;13090;53.422;7.670;2023-11-21T10:32:58;11.40;95.00
25108;DHT22;13090;53.422;7.670;2023-11-21T10:38:43;11.40;95.00
25108;DHT22;13090;53.422;7.670;2023-11-21T10:44:24;11.40;94.70
25108;DHT22;13090;53.422;7.670;2023-11-21T10:50:05;11.40;94.70
25108;DHT22;13090;53.422;7.670;2023-11-21T10:55:47;11.40;94.30
25108;DHT22;13090;53.422;7.670;2023-11-21T11:01:29;11.50;94.50
25108;DHT22;13090;53.422;7.670;2023-11-21T11:07:13;11.50;94.70
25108;DHT22;13090;53.422;7.670;2023-11-21T11:12:55;11.60;94.50
25108;DHT22;13090;53.422;7.670;2023-11-21T11:18:36;11.70;94.70
25108;DHT22;13090;53.422;7.670;2023-11-21T11:24:43;11.90;94.90
25108;DHT22;13090;53.422;7.670;2023-11-21T11:30:43;12.10;94.30
25108;DHT22;13090;53.422;7.670;2023-11-21T11:36:29;12.10;94.20
25108;DHT22;13090;53.422;7.670;2023-11-21T11:42:13;12.10;94.10
25108;DHT22;13090;53.422;7.670;2023-11-21T11:47:58;12.20;94.20
25108;DHT22;13090;53.422;7.670;2023-11-21T11:53:40;12.10;93.90
25108;DHT22;13090;53.422;7.670;2023-11-21T11:59:21;12.10;94.00
25108;DHT22;13090;53.422;7.670;2023-11-21T12:05:08;12.00;93.80
25108;DHT22;13090;53.422;7.670;2023-11-21T12:10:49;11.80;93.80
25108;DHT22;13090;53.422;7.670;2023-11-21T12:16:32;11.80;94.00
25108;DHT22;13090;53.422;7.670;2023-11-21T12:22:15;11.70;94.00
25108;DHT22;13090;53.422;7.670;2023-11-21T12:27:56;11.70;94.10
25108;DHT22;13090;53.422;7.670;2023-11-21T12:33:37;11.60;94.10
25108;DHT22;13090;53.422;7.670;2023-11-21T12:39:19;11.60;94.00
25108;DHT22;13090;53.422;7.670;2023-11-21T12:45:11;11.50;94.10
25108;DHT22;13090;53.422;7.670;2023-11-21T12:50:58;11.60;94.10
25108;DHT22;13090;53.422;7.670;2023-11-21T12:56:40;11.60;94.20
25108;DHT22;13090;53.422;7.670;2023-11-21T13:02:20;11.60;94.10
25108;DHT22;13090;53.422;7.670;2023-11-21T13:08:02;11.50;94.00
25108;DHT22;13090;53.422;7.670;2023-11-21T13:13:44;11.60;94.10
25108;DHT22;13090;53.422;7.670;2023-11-21T13:19:25;11.60;94.00
25108;DHT22;13090;53.422;7.670;2023-11-21T13:25:06;11.60;94.10
25108;DHT22;13090;53.422;7.670;2023-11-21T13:30:48;11.60;94.10
25108;DHT22;13090;53.422;7.670;2023-11-21T13:36:28;11.70;94.00
25108;DHT22;13090;53.422;7.670;2023-11-21T13:42:08;11.70;93.90
25108;DHT22;13090;53.422;7.670;2023-11-21T13:47:52;11.70;93.80
25108;DHT22;13090;53.422;7.670;2023-11-21T13:53:32;11.70;93.60
25108;DHT22;13090;53.422;7.670;2023-11-21T13:59:13;11.70;93.70
25108;DHT22;13090;53.422;7.670;2023-11-21T14:04:54;11.70;93.80
25108;DHT22;13090;53.422;7.670;2023-11-21T14:10:35;11.70;93.80
25108;DHT22;13090;53.422;7.670;2023-11-21T14:16:15;11.90;93.80
25108;DHT22;13090;53.422;7.670;2023-11-21T14:21:57;12.00;93.60
25108;DHT22;13090;53.422;7.670;2023-11-21T14:27:37;12.10;93.40
25108;DHT22;13090;53.422;7.670;2023-11-21T14:33:18;12.00;93.30
25108;DHT22;13090;53.422;7.670;2023-11-21T14:38:59;12.00;93.10
25108;DHT22;13090;53.422;7.670;2023-11-21T14:44:40;11.80;93.10
25108;DHT22;13090;53.422;7.670;2023-11-21T14:50:21;11.70;93.00
25108;DHT22;13090;53.422;7.670;2023-11-21T14:56:03;11.50;93.00
25108;DHT22;13090;53.422;7.670;2023-11-21T15:01:43;11.40;93.10
25108;DHT22;13090;53.422;7.670;2023-11-21T15:07:23;11.30;93.20
25108;DHT22;13090;53.422;7.670;2023-11-21T15:13:05;11.10;93.20
25108;DHT22;13090;53.422;7.670;2023-11-21T15:18:45;11.00;93.20
25108;DHT22;13090;53.422;7.670;2023-11-21T15:24:25;10.90;93.30
25108;DHT22;13090;53.422;7.670;2023-11-21T15:30:09;10.90;93.30
25108;DHT22;13090;53.422;7.670;2023-11-21T15:35:49;10.80;93.30
25108;DHT22;13090;53.422;7.670;2023-11-21T15:41:30;10.70;93.70
25108;DHT22;13090;53.422;7.670;2023-11-21T15:47:11;10.60;93.30
25108;DHT22;13090;53.422;7.670;2023-11-21T15:52:52;10.60;93.40
25108;DHT22;13090;53.422;7.670;2023-11-21T15:58:38;10.50;93.40
25108;DHT22;13090;53.422;7.670;2023-11-21T16:04:21;10.50;93.50
25108;DHT22;13090;53.422;7.670;2023-11-21T16:10:01;10.50;93.50
25108;DHT22;13090;53.422;7.670;2023-11-21T16:15:42;10.40;93.60
25108;DHT22;13090;53.422;7.670;2023-11-21T16:21:26;10.50;93.60
25108;DHT22;13090;53.422;7.670;2023-11-21T16:27:06;10.40;93.60
25108;DHT22;13090;53.422;7.670;2023-11-21T16:32:46;10.40;93.60
25108;DHT22;13090;53.422;7.670;2023-11-21T16:38:28;10.40;93.60
25108;DHT22;13090;53.422;7.670;2023-11-21T16:44:14;10.30;93.50
25108;DHT22;13090;53.422;7.670;2023-11-21T16:49:54;10.30;93.50
25108;DHT22;13090;53.422;7.670;2023-11-21T16:55:35;10.30;93.60
25108;DHT22;13090;53.422;7.670;2023-11-21T17:01:16;10.20;93.50
25108;DHT22;13090;53.422;7.670;2023-11-21T17:06:56;10.20;93.60
25108;DHT22;13090;53.422;7.670;2023-11-21T17:12:38;10.20;93.60
25108;DHT22;13090;53.422;7.670;2023-11-21T17:18:18;10.10;93.50
25108;DHT22;13090;53.422;7.670;2023-11-21T17:23:58;10.10;93.50
25108;DHT22;13090;53.422;7.670;2023-11-21T17:29:40;10.10;93.50
25108;DHT22;13090;53.422;7.670;2023-11-21T17:35:20;10.00;93.50
25108;DHT22;13090;53.422;7.670;2023-11-21T17:41:00;10.00;93.50
25108;DHT22;13090;53.422;7.670;2023-11-21T17:46:42;9.90;93.60
25108;DHT22;13090;53.422;7.670;2023-11-21T17:52:23;9.90;93.50
25108;DHT22;13090;53.422;7.670;2023-11-21T17:58:03;9.90;93.50
25108;DHT22;13090;53.422;7.670;2023-11-21T18:03:44;9.80;93.50
25108;DHT22;13090;53.422;7.670;2023-11-21T18:09:25;9.80;93.50
25108;DHT22;13090;53.422;7.670;2023-11-21T18:15:06;9.70;93.50
25108;DHT22;13090;53.422;7.670;2023-11-21T18:20:48;9.70;93.50
25108;DHT22;13090;53.422;7.670;2023-11-21T18:26:28;9.70;93.50
25108;DHT22;13090;53.422;7.670;2023-11-21T18:32:08;9.60;93.50
25108;DHT22;13090;53.422;7.670;2023-11-21T18:37:50;9.60;93.50
25108;DHT22;13090;53.422;7.670;2023-11-21T18:43:31;9.50;93.50
25108;DHT22;13090;53.422;7.670;2023-11-21T18:49:11;9.50;93.40
25108;DHT22;13090;53.422;7.670;2023-11-21T18:54:53;9.40;93.30
25108;DHT22;13090;53.422;7.670;2023-11-21T19:00:34;9.30;93.20
25108;DHT22;13090;53.422;7.670;2023-11-21T19:06:14;9.10;93.30
25108;DHT22;13090;53.422;7.670;2023-11-21T19:11:56;9.00;93.30
25108;DHT22;13090;53.422;7.670;2023-11-21T19:17:36;8.90;93.30
25108;DHT22;13090;53.422;7.670;2023-11-21T19:23:16;8.80;93.30
25108;DHT22;13090;53.422;7.670;2023-11-21T19:28:58;8.80;93.30
25108;DHT22;13090;53.422;7.670;2023-11-21T19:34:39;8.60;93.20
25108;DHT22;13090;53.422;7.670;2023-11-21T19:40:19;8.60;93.30
25108;DHT22;13090;53.422;7.670;2023-11-21T19:46:00;8.50;93.40
25108;DHT22;13090;53.422;7.670;2023-11-21T19:51:41;8.40;93.40
25108;DHT22;13090;53.422;7.670;2023-11-21T19:57:21;8.30;93.50
25108;DHT22;13090;53.422;7.670;2023-11-21T20:03:03;8.30;93.50
25108;DHT22;13090;53.422;7.670;2023-11-21T20:08:44;8.20;93.50
25108;DHT22;13090;53.422;7.670;2023-11-21T20:14:24;8.10;93.50
25108;DHT22;13090;53.422;7.670;2023-11-21T20:20:08;8.00;93.50
25108;DHT22;13090;53.422;7.670;2023-11-21T20:25:48;7.90;93.50
25108;DHT22;13090;53.422;7.670;2023-11-21T20:31:28;7.80;93.50
25108;DHT22;13090;53.422;7.670;2023-11-21T20:37:10;7.70;93.50
25108;DHT22;13090;53.422;7.670;2023-11-21T20:42:50;7.70;93.60
25108;DHT22;13090;53.422;7.670;2023-11-21T20:48:31;7.50;93.60
25108;DHT22;13090;53.422;7.670;2023-11-21T20:54:12;7.50;93.70
25108;DHT22;13090;53.422;7.670;2023-11-21T20:59:52;7.40;93.80
25108;DHT22;13090;53.422;7.670;2023-11-21T21:05:33;7.30;93.90
25108;DHT22;13090;53.422;7.670;2023-11-21T21:11:18;7.30;93.90
25108;DHT22;13090;53.422;7.670;2023-11-21T21:16:59;7.20;94.00
25108;DHT22;13090;53.422;7.670;2023-11-21T21:22:39;7.20;93.90
25108;DHT22;13090;53.422;7.670;2023-11-21T21:28:21;7.20;93.80
25108;DHT22;13090;53.422;7.670;2023-11-21T21:34:01;7.10;93.70
25108;DHT22;13090;53.422;7.670;2023-11-21T21:39:41;7.00;93.60
25108;DHT22;13090;53.422;7.670;2023-11-21T21:45:23;6.90;93.60
25108;DHT22;13090;53.422;7.670;2023-11-21T21:51:13;6.80;94.10
25108;DHT22;13090;53.422;7.670;2023-11-21T21:56:54;6.70;93.70
25108;DHT22;13090;53.422;7.670;2023-11-21T22:02:35;6.70;93.80
25108;DHT22;13090;53.422;7.670;2023-11-21T22:08:16;6.60;93.80
25108;DHT22;13090;53.422;7.670;2023-11-21T22:13:56;6.50;93.80
25108;DHT22;13090;53.422;7.670;2023-11-21T22:19:38;6.40;93.90
25108;DHT22;13090;53.422;7.670;2023-11-21T22:25:18;6.40;94.00
25108;DHT22;13090;53.422;7.670;2023-11-21T22:30:58;6.30;94.00
25108;DHT22;13090;53.422;7.670;2023-11-21T22:36:39;6.30;94.10
25108;DHT22;13090;53.422;7.670;2023-11-21T22:42:19;6.30;94.00
25108;DHT22;13090;53.422;7.670;2023-11-21T22:48:00;6.20;93.90
25108;DHT22;13090;53.422;7.670;2023-11-21T22:53:41;6.20;93.80
25108;DHT22;13090;53.422;7.670;2023-11-21T22:59:21;6.10;93.70
25108;DHT22;13090;53.422;7.670;2023-11-21T23:05:01;6.00;93.60
25108;DHT22;13090;53.422;7.670;2023-11-21T23:10:43;5.90;93.60
25108;DHT22;13090;53.422;7.670;2023-11-21T23:16:23;5.80;93.50
25108;DHT22;13090;53.422;7.670;2023-11-21T23:22:03;5.80;93.60
25108;DHT22;13090;53.422;7.670;2023-11-21T23:27:45;5.70;93.70
25108;DHT22;13090;53.422;7.670;2023-11-21T23:33:25;5.60;93.80
25108;DHT22;13090;53.422;7.670;2023-11-21T23:39:05;5.60;93.70
25108;DHT22;13090;53.422;7.670;2023-11-21T23:44:47;5.40;93.50
25108;DHT22;13090;53.422;7.670;2023-11-21T23:50:30;5.20;93.80
25108;DHT22;13090;53.422;7.670;2023-11-21T23:56:10;5.20;94.10
